Historyczne dane pomiarowe

Dodano dane terminowe – wersja testowa.

Dane z okresu 1951-2019

Wersja bazy: 1.34 [2019-03-16, lista zmian], aktualizacja planowana na 2019-04-15

Dane meteo z obszaru Polski uzyskane na podstawie danych udostępnionych przez Instytut Meteorologii i Gospodarki Wodnej – Państwowy Instytut Badawczy.

 

Wybierz Datę:    

       

TemperaturaWilgotnośćZachmurzenieWiatrCiśnienieWidzialnośćZjawiska
 Data    tng td wb rh cc ccl cl cm ch dir g1 g2 mslp ppp      
1994-08-07 00:00:00 16.8--- 15.7 16.193wxwxwxwx0wx--1019.5 979.1 0.0---wx
1994-08-07 01:00:00 16.6--- 15.5 15.993wxwxwx0wx--1019.3 978.9----wx
1994-08-07 02:00:00 15.8--- 15.2 15.496wxwxwx0wx--1019.4 978.9----wx
1994-08-07 03:00:00 15.3--- 15.0 15.198wxwxwxwx0wx--1019.3 978.7----wx
1994-08-07 04:00:00 15.5--- 15.2 15.398wxwxwxwx1wx--1019.4 978.8----wx
1994-08-07 05:00:00 15.8--- 15.3 15.597wxwxwxwx0wx--1019.2 978.7----wx
1994-08-07 06:00:00 18.4--- 16.8 17.491wxwxwxwx0wx--1018.8 978.7 0.0---wx
1994-08-07 07:00:00 22.6--- 17.1 19.071wxwxwxwx0wx--1018.3 978.7----wx
1994-08-07 08:00:00 23.0--- 18.0 19.774wxwxwxwxwx0wx--1018.2 978.7----wx
1994-08-07 09:00:00 25.5--- 19.5 21.469wxwxwxwxwx1wx--1018.0 978.8----wx
1994-08-07 10:00:00 25.1--- 18.7 20.868wxwxwx1wx--1017.9 978.7----wx
1994-08-07 11:00:00 24.8--- 18.9 20.870wxwxwx0wx--1018.0 978.7----wx
1994-08-07 12:00:00 21.6--- 20.3 20.792wxwxwx1wx--1018.7 979.0 0.0---wxw1
1994-08-07 13:00:00 22.9--- 20.9 21.588wxwxwx3wx--1018.2 978.7----wx
1994-08-07 14:00:00 23.9--- 19.5 20.976wxwxwxwx1wx--1017.2 977.8----wx
1994-08-07 15:00:00 22.6--- 20.3 21.087wxwxwx2wx--1016.6 977.1----wxw1
1994-08-07 16:00:00 22.7--- 20.2 21.086wxwxwx1wx--1016.9 977.4----wx
1994-08-07 17:00:00 22.6--- 20.0 20.885wxwxwxwx1wx--1016.6 977.1----wx
1994-08-07 18:00:00 22.0--- 19.6 20.486wxwxwx0wx--1016.6 977.0 0.0---wxw1
1994-08-07 19:00:00 20.4--- 19.5 19.895wxwxwx2wx--1017.6 977.8----wx
1994-08-07 20:00:00 20.4--- 18.9 19.491wxwxwx0wx--1017.3 977.5----wx
1994-08-07 21:00:00 19.3--- 18.5 18.895wxwxwx0wx--1017.5 977.5----wx
1994-08-07 22:00:00 19.5--- 18.6 18.994wxwxwx1wx--1017.7 977.7----wx
1994-08-07 23:00:00 19.3--- 17.5 18.189wxwxwx0wx--1017.6 977.6----wx

 

Źródłem pochodzenia danych jest Instytut Meteorologii i Gospodarki Wodnej – Państwowy Instytut Badawczy. Dane Instytutu Meteorologii i Gospodarki Wodnej – Państwowego Instytutu Badawczego zostały przetworzone.

Dane źródłowe można odnaleźć na stronie https://dane.imgw.pl